Time;durP1;ratioP1;P1;durP2;ratioP2;P2;SDS_P1;SDS_P2;PMS_P1;PMS_P2;Temp;Humidity;BMP_temperature;BMP_pressure;BME280_temperature;BME280_humidity;BME280_pressure;Samples;Min_cycle;Max_cycle;Signal;HPM_P1;HPM_P2
2023/05/29 00:02:23;;;;;;;8.25;7.45;;;13.00;99.90;;;13.83;74.61;97930.28;5150270;28;20629;-81
2023/05/29 00:04:58;;;;;;;8.38;7.00;;;12.90;99.90;;;13.85;74.24;97949.19;5153818;28;20230;-79
2023/05/29 00:07:32;;;;;;;9.90;7.60;;;12.90;99.90;;;13.76;75.13;97944.50;5142156;28;20226;-80
2023/05/29 00:10:06;;;;;;;11.93;7.53;;;12.90;99.90;;;13.66;75.09;97942.34;5145471;28;20223;-80
2023/05/29 00:12:40;;;;;;;8.07;7.25;;;12.80;99.90;;;13.67;75.36;97944.97;5145320;28;20234;-80
2023/05/29 00:15:13;;;;;;;7.78;6.90;;;12.80;99.90;;;13.64;75.09;97937.13;5148352;28;20368;-79
2023/05/29 00:17:46;;;;;;;8.63;7.30;;;12.80;99.90;;;13.70;75.31;97929.69;5153520;28;20219;-80
2023/05/29 00:20:21;;;;;;;9.00;7.63;;;12.80;99.90;;;13.75;75.67;97932.47;5153272;28;20256;-81
2023/05/29 00:22:55;;;;;;;8.75;7.18;;;12.80;99.90;;;13.70;76.67;97937.41;5150837;28;20722;-78
2023/05/29 00:25:28;;;;;;;9.02;7.38;;;12.70;99.90;;;13.59;76.16;97930.00;5151079;28;20266;-78
2023/05/29 00:28:01;;;;;;;7.93;7.13;;;12.70;99.90;;;13.54;76.40;97936.66;5151809;28;20273;-80
2023/05/29 00:30:34;;;;;;;9.18;7.53;;;12.60;99.90;;;13.51;76.40;97933.13;5149893;28;20220;-79
2023/05/29 00:33:08;;;;;;;10.23;6.93;;;12.50;99.90;;;13.41;76.71;97920.66;5141405;28;20224;-81
2023/05/29 00:35:43;;;;;;;9.02;7.65;;;12.40;99.90;;;13.44;77.00;97925.03;5148578;28;20270;-80
2023/05/29 00:38:16;;;;;;;7.90;7.20;;;12.40;99.90;;;13.34;76.99;97928.88;5156092;28;20226;-79
2023/05/29 00:40:49;;;;;;;10.48;8.07;;;12.40;99.90;;;13.15;77.45;97926.22;5143491;28;20239;-81
2023/05/29 00:43:22;;;;;;;9.10;7.63;;;12.30;99.90;;;13.23;76.72;97924.88;5146649;28;20959;-81
2023/05/29 00:45:56;;;;;;;8.35;7.10;;;12.30;99.90;;;13.18;77.06;97921.22;5145830;28;20230;-80
2023/05/29 00:48:29;;;;;;;9.50;7.25;;;12.30;99.90;;;13.15;77.46;97928.78;5155288;28;20231;-79
2023/05/29 00:51:04;;;;;;;10.18;7.75;;;12.30;99.90;;;13.06;78.03;97924.94;5154069;28;20656;-81
2023/05/29 00:53:37;;;;;;;8.30;7.50;;;12.20;99.90;;;13.15;77.11;97926.22;5147271;28;20218;-80
2023/05/29 00:56:11;;;;;;;8.73;7.60;;;12.20;99.90;;;13.08;77.35;97923.34;5148638;28;20285;-80
2023/05/29 00:58:45;;;;;;;8.20;7.40;;;12.20;99.90;;;13.07;77.26;97919.00;5143009;28;20235;-80
2023/05/29 01:01:19;;;;;;;8.43;7.50;;;12.20;99.90;;;13.03;77.35;97927.38;5149646;28;20734;-80
2023/05/29 01:03:57;;;;;;;8.50;7.70;;;12.20;99.90;;;13.01;78.21;97921.28;5140580;28;20231;-79
2023/05/29 01:10:43;;;;;;;9.10;8.20;;;12.20;99.90;;;12.97;78.51;97921.94;5149729;28;20287;-81
2023/05/29 01:13:20;;;;;;;9.23;7.50;;;12.10;99.90;;;12.89;78.53;97917.25;5148887;28;20259;-81
2023/05/29 01:15:59;;;;;;;9.32;8.32;;;12.10;99.90;;;12.85;78.65;97914.53;5158641;28;20723;-81
2023/05/29 01:18:42;;;;;;;9.98;8.00;;;12.00;99.90;;;12.83;78.80;97917.84;5157994;28;20226;-80
2023/05/29 01:21:24;;;;;;;9.85;8.73;;;12.00;99.90;;;12.79;78.86;97921.03;5150036;28;20292;-80
2023/05/29 01:24:13;;;;;;;9.65;8.38;;;12.00;99.90;;;12.82;78.99;97918.66;5164094;28;20285;-80
2023/05/29 01:26:53;;;;;;;8.77;7.22;;;12.00;99.90;;;12.77;79.68;97915.84;5153760;28;20251;-80
2023/05/29 01:29:31;;;;;;;8.95;8.05;;;12.00;99.90;;;12.71;79.28;97912.09;5154252;28;20250;-81
2023/05/29 01:32:05;;;;;;;8.65;7.75;;;11.90;99.90;;;12.79;79.39;97913.34;5138790;28;20251;-79
2023/05/29 01:34:39;;;;;;;9.32;8.13;;;11.90;99.90;;;12.72;79.63;97909.59;5152221;28;20273;-82
2023/05/29 01:37:12;;;;;;;9.73;8.25;;;11.90;99.90;;;12.56;80.02;97910.53;5157879;28;20235;-82
2023/05/29 01:39:45;;;;;;;8.60;7.70;;;11.80;99.90;;;12.55;80.46;97908.75;5145801;28;20270;-81
2023/05/29 01:42:20;;;;;;;9.82;8.35;;;11.80;99.90;;;12.50;80.36;97914.47;5148562;28;20258;-79
2023/05/29 01:44:54;;;;;;;8.35;6.93;;;11.70;99.90;;;12.54;79.82;97914.72;5163910;28;20219;-81
2023/05/29 01:47:28;;;;;;;10.38;8.40;;;11.70;99.90;;;12.61;80.12;97909.06;5147260;28;20232;-80
2023/05/29 01:50:03;;;;;;;9.57;7.88;;;11.80;99.90;;;12.60;80.39;97914.13;5147573;28;20234;-79
2023/05/29 01:52:36;;;;;;;8.95;8.05;;;11.80;99.90;;;12.58;79.94;97911.47;5150079;28;20977;-80
2023/05/29 01:55:09;;;;;;;9.25;8.18;;;11.70;99.90;;;12.52;80.04;97911.19;5158580;28;20743;-80
2023/05/29 01:57:45;;;;;;;9.50;8.50;;;11.70;99.90;;;12.47;80.09;97910.06;5145951;28;20224;-81
2023/05/29 02:00:19;;;;;;;9.20;8.25;;;11.70;99.90;;;12.39;80.75;97908.81;5150393;28;20219;-80
2023/05/29 02:07:04;;;;;;;8.55;7.63;;;11.60;99.90;;;12.43;80.55;97904.72;5147679;28;20219;-79
2023/05/29 02:09:37;;;;;;;10.05;7.50;;;11.60;99.90;;;12.38;80.48;97907.91;5153884;28;20695;-80
2023/05/29 02:12:10;;;;;;;9.05;8.20;;;11.60;99.90;;;12.35;80.39;97910.31;5148883;28;20224;-79
2023/05/29 02:14:46;;;;;;;8.52;7.60;;;11.60;99.90;;;12.31;80.79;97912.66;5159312;28;20225;-80
2023/05/29 02:17:19;;;;;;;10.57;7.20;;;11.50;99.90;;;12.23;80.55;97912.25;5151326;28;20584;-81
2023/05/29 02:19:52;;;;;;;10.02;8.40;;;11.50;99.90;;;12.25;80.70;97917.50;5152807;28;20715;-79
2023/05/29 02:22:25;;;;;;;8.18;7.38;;;11.50;99.90;;;12.26;80.54;97914.09;5152359;28;20235;-79
2023/05/29 02:24:58;;;;;;;9.02;7.68;;;11.50;99.90;;;12.31;80.77;97912.66;5159017;28;20255;-79
2023/05/29 02:27:32;;;;;;;8.65;7.75;;;11.50;99.90;;;12.31;80.60;97910.97;5155122;28;20258;-81
2023/05/29 02:30:08;;;;;;;10.20;8.45;;;11.50;99.90;;;12.33;80.70;97911.03;5149824;28;20222;-80
2023/05/29 02:32:41;;;;;;;8.60;7.53;;;11.50;99.90;;;12.34;80.67;97910.25;5160568;28;20867;-80
2023/05/29 02:35:17;;;;;;;8.15;7.35;;;11.50;99.90;;;12.35;80.62;97909.44;5155408;28;20228;-81
2023/05/29 02:37:50;;;;;;;8.27;7.43;;;11.50;99.90;;;12.38;80.29;97914.72;5156690;28;20269;-80
2023/05/29 02:40:23;;;;;;;8.98;8.07;;;11.50;99.90;;;12.30;79.90;97914.31;5152667;28;20242;-80
2023/05/29 02:42:57;;;;;;;8.23;7.45;;;11.40;99.90;;;12.28;80.07;97915.06;5155739;28;20291;-80
2023/05/29 02:45:31;;;;;;;9.25;8.07;;;11.40;99.90;;;12.30;80.17;97916.00;5163096;28;20225;-80
2023/05/29 02:48:04;;;;;;;9.35;8.35;;;11.40;99.90;;;12.26;80.17;97911.56;5155127;28;20284;-80
2023/05/29 02:50:37;;;;;;;10.15;8.05;;;11.40;99.90;;;12.26;80.59;97919.25;5159929;28;20648;-79
2023/05/29 02:53:10;;;;;;;8.88;8.07;;;11.40;99.90;;;12.25;80.79;97913.22;5155419;28;20258;-79
2023/05/29 02:55:44;;;;;;;8.52;7.68;;;11.30;99.90;;;12.29;80.72;97911.69;5151755;28;20219;-80
2023/05/29 02:58:17;;;;;;;10.85;8.07;;;11.40;99.90;;;12.21;81.17;97908.72;5153189;28;20224;-80
2023/05/29 03:00:52;;;;;;;9.40;8.05;;;11.30;99.90;;;12.17;80.54;97907.72;5152990;28;20247;-77
2023/05/29 03:03:25;;;;;;;8.07;7.38;;;11.30;99.90;;;12.22;80.61;97910.50;5146844;28;20226;-79
2023/05/29 03:05:58;;;;;;;8.98;7.57;;;11.30;99.90;;;12.18;80.47;97906.88;5152471;28;20865;-80
2023/05/29 03:08:33;;;;;;;9.10;7.78;;;11.20;99.90;;;12.11;80.82;97911.66;5146461;28;20279;-80
2023/05/29 03:11:07;;;;;;;8.43;7.60;;;11.10;99.90;;;12.08;81.40;97917.50;5151279;28;20246;-78
2023/05/29 03:13:40;;;;;;;8.13;7.38;;;11.10;99.90;;;12.02;81.75;97908.59;5158507;28;20282;-79
2023/05/29 03:16:14;;;;;;;9.02;7.95;;;11.10;99.90;;;12.01;81.68;97910.25;5144621;28;20227;-80
2023/05/29 03:18:48;;;;;;;8.85;7.57;;;11.10;99.90;;;11.98;81.88;97911.78;5150824;28;20302;-80
2023/05/29 03:21:21;;;;;;;9.25;8.32;;;11.10;99.90;;;11.90;81.42;97906.25;5153910;28;20277;-79
2023/05/29 03:23:54;;;;;;;8.50;7.60;;;11.10;99.90;;;11.83;82.33;97909.28;5146734;28;20227;-80
2023/05/29 03:26:27;;;;;;;7.80;7.05;;;11.00;99.90;;;11.72;82.13;97912.13;5145515;28;20711;-80
2023/05/29 03:29:00;;;;;;;9.50;7.65;;;10.90;99.90;;;11.71;82.40;97912.94;5146652;28;20700;-80
2023/05/29 03:31:35;;;;;;;9.15;8.25;;;10.90;99.90;;;11.63;83.14;97910.78;5142998;28;20219;-80
2023/05/29 03:34:09;;;;;;;10.40;8.20;;;10.90;99.90;;;11.60;83.12;97906.38;5157322;28;20228;-80
2023/05/29 03:36:42;;;;;;;8.73;7.83;;;10.80;99.90;;;11.66;83.09;97905.81;5153967;28;20228;-80
2023/05/29 03:39:15;;;;;;;8.93;7.78;;;10.90;99.90;;;11.72;82.95;97909.59;5151964;28;20316;-79
2023/05/29 03:41:49;;;;;;;9.18;8.20;;;10.90;99.90;;;11.78;82.55;97910.72;5142109;28;20220;-77
2023/05/29 03:44:22;;;;;;;9.00;8.10;;;11.00;99.90;;;11.87;82.22;97914.66;5152889;28;20239;-80
2023/05/29 03:46:57;;;;;;;9.40;7.80;;;11.00;99.90;;;11.90;82.68;97907.16;5154830;28;20250;-80
2023/05/29 03:49:30;;;;;;;8.00;7.03;;;11.10;99.90;;;12.04;82.14;97912.97;5156898;28;20222;-80
2023/05/29 03:52:03;;;;;;;8.55;7.70;;;11.10;99.90;;;12.00;82.03;97918.75;5150310;28;20314;-80
2023/05/29 03:54:36;;;;;;;8.23;7.40;;;11.10;99.90;;;11.91;82.34;97913.16;5156625;28;20227;-77
2023/05/29 03:57:10;;;;;;;9.93;7.60;;;11.10;99.90;;;12.01;81.50;97917.06;5140160;28;20278;-80
2023/05/29 03:59:43;;;;;;;9.10;7.85;;;11.10;99.90;;;12.04;81.72;97923.22;5147432;28;20269;-78
2023/05/29 04:02:17;;;;;;;9.32;7.63;;;11.20;99.90;;;12.05;82.37;97922.44;5146284;28;20235;-80
2023/05/29 04:04:52;;;;;;;8.63;7.70;;;11.10;99.90;;;12.10;81.44;97925.25;5154096;28;20227;-79
2023/05/29 04:07:25;;;;;;;9.23;7.10;;;11.20;99.90;;;12.12;81.55;97924.53;5146084;28;20227;-78
2023/05/29 04:09:59;;;;;;;8.20;7.32;;;11.10;99.90;;;12.20;81.27;97929.19;5157697;28;20224;-79
2023/05/29 04:12:32;;;;;;;8.43;7.35;;;11.10;99.90;;;12.18;81.47;97927.41;5147169;28;20235;-79
2023/05/29 04:15:07;;;;;;;8.10;7.25;;;11.10;99.90;;;12.14;81.45;97932.31;5145605;28;20242;-78
2023/05/29 04:17:42;;;;;;;9.07;7.40;;;11.10;99.90;;;12.22;81.56;97930.09;5151227;28;20281;-78
2023/05/29 04:20:16;;;;;;;8.73;7.93;;;11.10;99.90;;;12.17;81.28;97941.00;5149499;28;20230;-79
2023/05/29 04:22:49;;;;;;;7.93;7.03;;;11.10;99.90;;;12.12;81.66;97934.75;5153709;28;20307;-79
2023/05/29 04:25:22;;;;;;;8.35;7.25;;;11.10;99.90;;;12.18;81.50;97945.31;5144622;28;20222;-78
2023/05/29 04:27:55;;;;;;;7.68;6.88;;;11.20;99.90;;;12.24;81.50;97949.03;5144519;28;20216;-78
2023/05/29 04:30:29;;;;;;;8.55;7.75;;;11.30;99.90;;;12.29;81.19;97942.47;5143399;28;20235;-78
2023/05/29 04:33:04;;;;;;;8.05;7.22;;;11.30;99.90;;;12.34;81.19;97946.16;5147075;28;20267;-78
2023/05/29 04:35:37;;;;;;;7.28;6.57;;;11.30;99.90;;;12.46;80.68;97949.31;5152037;28;20235;-78
2023/05/29 04:38:10;;;;;;;8.07;7.20;;;11.40;99.90;;;12.56;79.83;97951.56;5150264;28;20818;-79
2023/05/29 04:40:44;;;;;;;8.02;7.18;;;11.50;99.90;;;12.68;78.98;97953.88;5136741;28;20305;-78
2023/05/29 04:43:17;;;;;;;8.32;7.40;;;11.50;99.90;;;12.33;79.39;97959.75;5139658;28;20259;-79
2023/05/29 04:45:51;;;;;;;9.07;6.80;;;11.30;99.90;;;12.44;79.72;97968.00;5134293;28;20272;-79
2023/05/29 04:48:26;;;;;;;7.25;6.55;;;11.30;99.90;;;12.56;79.59;97964.38;5138741;28;20232;-79
2023/05/29 04:50:59;;;;;;;7.20;6.50;;;11.40;99.90;;;12.75;78.45;97967.88;5134048;28;20243;-79
2023/05/29 04:53:33;;;;;;;8.23;7.32;;;11.50;99.90;;;12.82;78.69;97965.69;5140534;28;20775;-79
2023/05/29 04:56:06;;;;;;;7.15;6.55;;;11.70;99.90;;;13.19;77.50;97953.75;5140641;28;20225;-78
2023/05/29 04:58:41;;;;;;;7.63;6.78;;;12.10;99.90;;;13.47;76.79;97962.00;5140107;28;20658;-78
2023/05/29 05:01:15;;;;;;;6.75;6.05;;;12.40;99.90;;;14.06;74.10;97957.88;5134406;28;20219;-77
2023/05/29 05:03:49;;;;;;;7.85;7.07;;;12.90;99.90;;;14.42;72.51;97961.22;5140896;28;20274;-80
2023/05/29 05:06:25;;;;;;;8.25;7.10;;;13.10;99.90;;;14.59;71.39;97963.63;5143312;28;20250;-79
2023/05/29 05:08:58;;;;;;;6.53;5.72;;;13.30;99.90;;;14.98;69.49;97961.88;5147543;28;20309;-80
2023/05/29 05:11:31;;;;;;;7.63;6.93;;;13.60;99.90;;;15.14;68.49;97960.81;5141647;28;20223;-78
2023/05/29 05:14:04;;;;;;;7.50;6.05;;;13.70;99.90;;;15.48;68.05;97967.28;5134451;28;20232;-79
2023/05/29 05:16:37;;;;;;;6.78;6.18;;;13.80;99.90;;;15.91;66.74;97964.72;5142704;28;20238;-78
2023/05/29 05:19:12;;;;;;;7.78;6.95;;;14.10;99.90;;;16.30;65.00;97973.88;5143271;28;20215;-79
2023/05/29 05:21:45;;;;;;;6.85;6.25;;;14.50;99.90;;;16.87;62.07;97974.19;5145243;28;20910;-79
2023/05/29 05:24:18;;;;;;;8.23;6.55;;;15.10;99.90;;;17.22;60.59;97974.50;5146300;28;20227;-79
2023/05/29 05:26:51;;;;;;;7.82;6.63;;;15.30;99.90;;;17.44;59.68;97974.38;5134209;28;20231;-79
2023/05/29 05:29:25;;;;;;;7.30;6.60;;;15.30;99.90;;;17.94;57.66;97980.28;5134149;28;20238;-79
2023/05/29 05:32:01;;;;;;;7.50;6.80;;;15.60;99.90;;;17.79;57.14;97978.06;5140458;28;20229;-79
2023/05/29 05:34:35;;;;;;;6.38;5.78;;;15.80;99.90;;;18.19;57.43;97987.03;5149001;28;20285;-81
2023/05/29 05:37:08;;;;;;;6.60;6.00;;;16.00;99.90;;;18.55;55.47;97982.88;5150580;28;20251;-80
2023/05/29 05:39:41;;;;;;;8.35;6.20;;;16.30;99.90;;;18.70;55.40;97978.09;5137596;28;20235;-80
2023/05/29 05:42:15;;;;;;;7.75;6.30;;;16.50;99.90;;;19.24;53.53;97976.94;5140258;28;20224;-81
2023/05/29 05:44:48;;;;;;;6.50;5.90;;;17.00;99.90;;;19.57;52.36;97974.25;5141294;28;20231;-81
2023/05/29 05:47:21;;;;;;;6.93;6.15;;;17.20;99.80;;;19.80;51.80;97974.81;5149629;28;20228;-80
2023/05/29 05:49:55;;;;;;;6.60;6.00;;;17.50;99.20;;;19.98;51.15;97985.59;5137821;28;20227;-79
2023/05/29 05:52:31;;;;;;;6.65;6.05;;;18.10;98.30;;;20.09;50.54;97985.84;5139908;28;20236;-80
2023/05/29 05:55:05;;;;;;;8.18;6.15;;;18.20;97.60;;;20.40;50.17;97983.88;5140568;28;20224;-79
2023/05/29 05:57:38;;;;;;;6.28;5.68;;;18.30;97.50;;;20.78;48.82;97987.25;5145621;28;20626;-78
2023/05/29 06:00:13;;;;;;;6.95;6.25;;;18.50;97.00;;;20.99;48.35;97986.78;5148786;28;20223;-80
2023/05/29 06:02:47;;;;;;;7.75;5.95;;;18.70;96.60;;;21.23;47.98;97980.25;5144231;28;20234;-81
2023/05/29 06:05:22;;;;;;;6.65;5.70;;;18.70;96.20;;;21.57;46.77;97987.75;5148903;28;20313;-79
2023/05/29 06:07:55;;;;;;;7.72;5.93;;;18.90;96.00;;;21.58;46.49;97992.13;5143512;28;20220;-80
2023/05/29 06:10:28;;;;;;;6.45;5.70;;;19.00;95.50;;;21.80;46.93;97987.25;5144090;28;20235;-79
2023/05/29 06:13:01;;;;;;;6.70;5.65;;;19.30;95.50;;;22.17;45.60;97990.38;5146061;28;20297;-78
2023/05/29 06:15:35;;;;;;;6.55;5.88;;;19.60;95.00;;;22.29;45.46;98000.09;5139831;28;20224;-78
2023/05/29 06:18:08;;;;;;;6.43;5.32;;;19.50;95.20;;;22.83;45.10;97983.34;5150601;28;20254;-80
2023/05/29 06:20:44;;;;;;;6.07;5.55;;;19.80;95.20;;;23.22;43.82;97990.72;5133498;28;20235;-78
2023/05/29 06:23:17;;;;;;;7.40;5.47;;;20.10;94.40;;;23.51;42.96;97988.38;5146575;28;20318;-78
2023/05/29 06:25:51;;;;;;;6.32;5.72;;;20.20;93.80;;;23.34;42.92;97989.97;5146744;28;20231;-77
2023/05/29 06:28:24;;;;;;;7.47;5.95;;;20.40;93.50;;;23.22;43.39;97988.13;5142270;28;20243;-78
2023/05/29 06:30:57;;;;;;;6.55;5.65;;;20.90;93.10;;;23.96;42.07;97993.94;5140614;28;20270;-78
2023/05/29 06:33:30;;;;;;;6.20;5.07;;;21.20;92.80;;;24.01;42.11;97997.47;5157980;28;20281;-78
2023/05/29 06:36:06;;;;;;;7.60;5.35;;;21.20;92.30;;;24.15;40.81;97998.41;5139328;28;20720;-79
2023/05/29 06:38:39;;;;;;;6.53;5.93;;;21.50;91.60;;;24.24;41.22;97998.44;5145552;28;20223;-79
2023/05/29 06:41:13;;;;;;;6.07;5.10;;;21.70;91.60;;;24.41;40.41;97998.53;5148741;28;20280;-79
2023/05/29 06:43:46;;;;;;;6.25;5.65;;;21.90;90.90;;;24.79;40.36;97996.94;5142246;28;20263;-79
2023/05/29 06:46:19;;;;;;;5.95;5.35;;;22.20;90.70;;;25.24;39.44;98000.53;5141723;28;20302;-79
2023/05/29 06:48:52;;;;;;;5.95;5.05;;;22.70;90.30;;;25.34;39.15;97999.69;5143563;28;20227;-79
2023/05/29 06:51:27;;;;;;;7.50;5.07;;;22.90;89.30;;;25.75;37.91;98009.25;5144173;28;20224;-79
2023/05/29 06:54:00;;;;;;;8.02;5.70;;;23.20;87.10;;;26.06;37.11;98005.75;5139431;28;20697;-79
2023/05/29 06:56:33;;;;;;;6.55;5.75;;;23.30;86.80;;;26.35;36.76;98006.53;5145660;28;20228;-80
2023/05/29 06:59:06;;;;;;;8.88;5.60;;;23.90;85.50;;;26.39;36.68;98010.91;5142339;28;20279;-80
2023/05/29 07:01:39;;;;;;;5.65;5.15;;;23.80;85.00;;;26.81;36.28;98015.09;5139207;28;20222;-80
2023/05/29 07:04:12;;;;;;;5.57;5.05;;;24.10;85.50;;;27.15;36.12;98018.44;5148423;28;20219;-80
2023/05/29 07:06:47;;;;;;;5.90;5.30;;;24.70;84.60;;;27.17;35.91;98018.44;5147226;28;20219;-80
2023/05/29 07:09:20;;;;;;;5.63;5.07;;;24.60;84.20;;;27.51;35.20;98018.22;5137674;28;20223;-80
2023/05/29 07:11:53;;;;;;;5.95;5.35;;;25.00;83.20;;;27.70;34.53;98019.81;5145270;28;20233;-80
2023/05/29 07:14:27;;;;;;;6.28;5.22;;;25.00;82.40;;;27.80;34.86;98024.09;5143173;28;20231;-79
2023/05/29 07:17:00;;;;;;;7.65;5.78;;;24.90;81.40;;;27.69;34.65;98027.69;5143046;28;20216;-79
2023/05/29 07:19:34;;;;;;;6.15;5.55;;;25.10;81.60;;;27.98;34.65;98028.31;5156390;28;20714;-79
2023/05/29 07:22:09;;;;;;;6.57;5.85;;;25.10;81.40;;;27.85;34.27;98022.31;5147016;28;20231;-80
2023/05/29 07:24:42;;;;;;;18.85;13.75;;;25.00;81.70;;;27.83;34.18;98021.44;5148633;28;21015;-79
2023/05/29 07:27:15;;;;;;;14.88;10.85;;;25.10;80.70;;;28.07;34.02;98022.09;5148261;28;20258;-79
2023/05/29 07:29:48;;;;;;;64.60;39.42;;;25.40;80.90;;;28.15;34.72;98020.25;5150079;28;20298;-80
2023/05/29 07:32:22;;;;;;;11.90;10.23;;;25.40;80.90;;;27.96;34.10;98016.97;5135063;28;20232;-81
2023/05/29 07:34:55;;;;;;;7.47;6.32;;;25.30;80.00;;;27.81;34.47;98017.97;5139274;28;20302;-80
2023/05/29 07:37:31;;;;;;;28.73;20.67;;;25.50;80.10;;;28.10;34.49;98016.81;5145781;28;20229;-80
2023/05/29 07:40:06;;;;;;;9.95;7.90;;;25.70;80.20;;;28.36;33.14;98016.53;5145204;28;20244;-81
2023/05/29 07:42:39;;;;;;;10.45;8.15;;;26.10;78.30;;;28.83;32.32;98011.59;5142053;28;20226;-80
2023/05/29 07:45:12;;;;;;;7.60;6.47;;;26.40;77.20;;;28.62;33.13;98024.16;5139971;28;20780;-81
2023/05/29 07:47:45;;;;;;;10.45;7.75;;;26.40;76.90;;;28.47;31.67;98021.69;5139701;28;20231;-79
2023/05/29 07:50:19;;;;;;;23.92;16.67;;;26.30;74.80;;;28.66;31.15;98015.31;5149325;28;20257;-79
2023/05/29 07:52:55;;;;;;;17.98;14.50;;;26.40;74.20;;;28.96;32.32;98016.66;5144721;28;20223;-82
2023/05/29 07:55:28;;;;;;;7.93;6.50;;;26.70;75.50;;;28.87;31.61;98029.06;5155222;28;20434;-83
2023/05/29 07:58:02;;;;;;;5.78;5.20;;;26.80;73.70;;;29.46;30.14;98023.88;5138878;28;20274;-83
2023/05/29 08:00:36;;;;;;;14.25;10.43;;;26.90;73.00;;;29.55;30.74;98021.94;5154140;28;20215;-82
2023/05/29 08:03:09;;;;;;;9.93;7.45;;;27.10;73.50;;;30.03;29.54;98026.44;5143229;28;20227;-83
2023/05/29 08:05:42;;;;;;;12.48;9.25;;;27.20;72.30;;;29.56;29.33;98020.16;5148257;28;20224;-83
2023/05/29 08:08:17;;;;;;;15.07;10.90;;;26.80;71.80;;;30.08;29.43;98025.44;5142853;28;20855;-81
2023/05/29 08:10:50;;;;;;;10.98;8.15;;;27.00;72.10;;;29.97;29.58;98024.78;5151689;28;20227;-83
2023/05/29 08:13:23;;;;;;;6.20;5.25;;;27.20;72.00;;;29.50;29.65;98033.44;5144622;28;20231;-84
2023/05/29 08:15:57;;;;;;;10.80;8.38;;;27.10;71.00;;;29.50;30.29;98034.31;5146056;28;20596;-82
2023/05/29 08:18:33;;;;;;;6.38;5.35;;;27.40;71.20;;;28.38;30.31;98019.13;5146160;28;20238;-82
2023/05/29 08:21:06;;;;;;;7.88;6.65;;;26.70;70.40;;;27.60;31.39;98007.63;5158068;28;20641;-81
2023/05/29 08:23:41;;;;;;;6.60;5.90;;;26.40;70.20;;;27.46;32.05;98015.59;5140137;28;20231;-82
2023/05/29 08:26:14;;;;;;;6.97;6.13;;;26.20;71.40;;;27.30;32.56;98020.13;5150018;28;20240;-81
2023/05/29 08:28:48;;;;;;;6.07;5.47;;;26.30;71.50;;;26.85;32.38;98021.25;5143523;28;20982;-82
2023/05/29 08:31:21;;;;;;;6.60;5.65;;;26.10;70.40;;;26.56;33.11;98010.88;5145037;28;20223;-82
2023/05/29 08:33:55;;;;;;;7.72;6.05;;;25.60;72.00;;;27.01;33.43;98022.00;5144783;28;20227;-84
2023/05/29 08:36:28;;;;;;;7.03;5.82;;;26.00;72.90;;;26.71;33.49;98016.06;5148322;28;20790;-82
2023/05/29 08:39:02;;;;;;;8.70;6.82;;;26.10;71.20;;;26.95;32.94;98007.16;5133093;28;20226;-83
2023/05/29 08:41:48;;;;;;;7.63;6.13;;;26.30;71.20;;;27.15;33.88;98015.81;5144427;28;20222;-85
2023/05/29 08:44:24;;;;;;;7.25;5.88;;;26.40;72.20;;;27.38;31.98;98023.53;5143016;28;20301;-85
2023/05/29 08:46:58;;;;;;;5.90;5.28;;;26.70;69.20;;;27.37;30.97;98018.31;5144473;28;20274;-85
2023/05/29 08:49:42;;;;;;;6.50;5.35;;;26.60;68.10;;;27.11;31.06;98013.22;5148136;28;20273;-85
2023/05/29 08:52:19;;;;;;;7.32;5.45;;;26.30;67.70;;;27.20;31.32;98013.19;5140338;28;20246;-85
2023/05/29 08:54:55;;;;;;;5.75;5.25;;;26.40;67.80;;;27.33;30.83;98006.97;5143936;28;20218;-84
2023/05/29 08:57:29;;;;;;;5.63;5.13;;;26.70;66.80;;;26.90;31.00;98007.22;5146378;28;20227;-85
2023/05/29 09:00:08;;;;;;;5.70;4.80;;;26.20;65.20;;;27.14;31.57;98018.44;5142942;28;20231;-85
2023/05/29 09:02:43;;;;;;;5.75;4.90;;;26.30;68.00;;;27.21;29.93;98028.03;5140272;28;20700;-86
2023/05/29 09:05:17;;;;;;;6.93;5.00;;;26.50;65.30;;;26.99;30.15;98013.28;5138741;28;20227;-84
2023/05/29 09:07:50;;;;;;;5.55;4.88;;;26.30;64.70;;;27.12;30.64;98025.44;5146294;28;20297;-85
2023/05/29 09:10:26;;;;;;;6.07;4.78;;;26.40;66.10;;;26.80;30.45;98017.75;5139180;28;20254;-85
2023/05/29 09:13:00;;;;;;;8.10;5.10;;;26.20;65.50;;;27.14;31.23;98019.31;5150123;28;20230;-85
2023/05/29 09:15:33;;;;;;;6.28;4.82;;;26.40;67.20;;;26.31;31.29;98023.19;5142236;28;20742;-85
2023/05/29 09:18:08;;;;;;;5.80;5.18;;;25.70;66.50;;;26.69;30.92;98018.66;5140383;28;20270;-87
2023/05/29 09:20:41;;;;;;;6.38;4.78;;;25.90;66.30;;;26.31;31.88;98018.78;5137816;28;20305;-84
2023/05/29 09:23:15;;;;;;;5.75;5.20;;;25.60;67.50;;;26.64;30.61;98016.94;5146610;28;20700;-83
2023/05/29 09:25:54;;;;;;;5.78;4.85;;;26.00;65.60;;;26.31;31.55;98024.03;5147824;28;20648;-83
2023/05/29 09:28:28;;;;;;;6.13;5.10;;;25.80;66.30;;;26.04;31.68;98025.88;5150320;28;20227;-85
2023/05/29 09:31:01;;;;;;;5.00;4.45;;;25.50;66.70;;;25.83;32.71;98031.13;5150394;28;20661;-85
2023/05/29 09:33:35;;;;;;;5.03;4.53;;;25.40;68.10;;;26.07;32.11;98019.75;5139065;28;20247;-84
2023/05/29 09:36:21;;;;;;;7.75;4.38;;;25.50;66.50;;;26.28;31.51;98030.16;5141883;28;20712;-85
2023/05/29 09:38:54;;;;;;;5.05;4.20;;;25.70;66.60;;;26.02;31.86;98032.84;5144770;28;20222;-85
2023/05/29 09:41:48;;;;;;;5.00;4.50;;;25.50;66.50;;;25.66;32.05;98025.84;5142177;28;20258;-85
2023/05/29 09:44:21;;;;;;;4.75;4.30;;;25.20;66.40;;;25.84;32.84;98027.66;5144480;28;20221;-87
2023/05/29 09:46:59;;;;;;;4.97;4.40;;;25.10;68.90;;;26.03;32.23;98021.47;5144355;28;20250;-85
2023/05/29 09:49:33;;;;;;;6.00;4.68;;;25.40;67.60;;;25.88;33.24;98028.50;5141751;28;20310;-85
2023/05/29 09:52:07;;;;;;;5.40;4.90;;;25.20;68.40;;;26.10;32.40;98029.31;5141950;28;20227;-85
2023/05/29 09:54:42;;;;;;;4.63;3.90;;;25.50;67.60;;;26.19;31.83;98029.31;5151776;28;20276;-84
2023/05/29 09:57:18;;;;;;;7.78;4.80;;;25.50;66.90;;;25.41;32.49;98040.72;5150569;28;20219;-85
2023/05/29 09:59:53;;;;;;;6.10;4.65;;;24.90;67.60;;;25.70;31.69;98034.59;5143046;28;20243;-85
2023/05/29 10:02:27;;;;;;;6.10;4.30;;;25.00;66.50;;;25.46;33.43;98031.09;5138694;28;20255;-84
2023/05/29 10:05:01;;;;;;;6.35;4.60;;;24.80;68.70;;;25.42;32.21;98036.34;5135901;28;20725;-85
2023/05/29 10:07:37;;;;;;;5.15;4.65;;;24.90;66.20;;;25.43;33.23;98035.47;5143308;28;20224;-85
2023/05/29 10:10:13;;;;;;;4.88;4.38;;;25.00;67.90;;;25.54;32.80;98028.47;5140649;28;20364;-85
2023/05/29 10:12:50;;;;;;;4.90;3.92;;;25.10;67.30;;;25.58;32.72;98024.97;5142914;28;20223;-85
2023/05/29 10:15:30;;;;;;;6.03;4.43;;;25.20;67.10;;;25.37;31.50;98018.00;5150440;28;20227;-85
2023/05/29 10:18:09;;;;;;;5.90;4.63;;;25.10;65.30;;;25.77;32.86;98023.25;5139422;28;20724;-84
2023/05/29 10:20:45;;;;;;;4.78;4.20;;;25.20;67.10;;;26.02;32.35;98022.38;5144375;28;20231;-84
2023/05/29 10:23:23;;;;;;;6.47;4.13;;;25.50;66.80;;;25.40;31.30;98023.22;5139908;28;20282;-84
2023/05/29 10:26:16;;;;;;;4.65;4.18;;;25.20;63.60;;;25.34;32.00;98020.63;5144671;28;20294;-82
2023/05/29 10:28:58;;;;;;;5.55;4.25;;;24.70;65.80;;;25.30;31.73;98030.22;5148509;28;20297;-83
2023/05/29 10:31:41;;;;;;;4.65;4.20;;;24.70;64.80;;;25.58;31.62;98027.59;5152594;28;20223;-84
2023/05/29 10:34:29;;;;;;;5.13;4.05;;;25.00;65.60;;;25.20;31.73;98022.34;5147068;28;20327;-83
2023/05/29 10:37:09;;;;;;;4.50;4.10;;;24.70;64.70;;;25.43;30.67;98018.00;5149363;28;20227;-84
2023/05/29 10:39:42;;;;;;;4.72;4.30;;;25.00;63.90;;;25.54;31.03;98012.78;5144097;28;20227;-85
2023/05/29 10:42:47;;;;;;;4.45;4.10;;;25.00;64.00;;;25.98;30.55;98012.78;5142459;28;20223;-85
2023/05/29 10:45:52;;;;;;;5.28;3.95;;;25.40;64.40;;;25.71;30.62;98004.91;5148018;28;20219;-84
2023/05/29 10:48:42;;;;;;;4.53;4.05;;;25.40;62.80;;;25.92;28.34;98004.91;5146329;28;20227;-85
2023/05/29 10:51:28;;;;;;;4.50;3.97;;;25.60;59.80;;;25.83;29.31;98005.78;5147714;28;20223;-82
2023/05/29 10:54:01;;;;;;;6.28;3.97;;;25.30;61.50;;;25.83;27.47;98015.41;5148647;28;20231;-83
2023/05/29 10:56:34;;;;;;;4.32;3.92;;;25.30;58.50;;;25.62;28.59;98001.44;5149171;28;20749;-84
2023/05/29 10:59:09;;;;;;;4.55;4.15;;;25.10;59.80;;;25.85;29.78;98013.66;5150999;28;20231;-83